sensor_id;sensor_type;location;lat;lon;timestamp;P1;durP1;ratioP1;P2;durP2;ratioP2
5999;SDS011;3028;49.468;7.694;2022-10-16T00:01:53;0.70;;;0.70;;
5999;SDS011;3028;49.468;7.694;2022-10-16T00:03:55;0.98;;;0.60;;
5999;SDS011;3028;49.468;7.694;2022-10-16T00:05:59;1.00;;;0.50;;
5999;SDS011;3028;49.468;7.694;2022-10-16T00:08:01;0.63;;;0.63;;
5999;SDS011;3028;49.468;7.694;2022-10-16T00:10:04;1.25;;;0.60;;
5999;SDS011;3028;49.468;7.694;2022-10-16T00:12:05;0.60;;;0.60;;
5999;SDS011;3028;49.468;7.694;2022-10-16T00:14:09;2.97;;;0.50;;
5999;SDS011;3028;49.468;7.694;2022-10-16T00:16:13;0.50;;;0.50;;
5999;SDS011;3028;49.468;7.694;2022-10-16T00:18:14;1.77;;;0.52;;
5999;SDS011;3028;49.468;7.694;2022-10-16T00:20:16;2.47;;;1.38;;
5999;SDS011;3028;49.468;7.694;2022-10-16T00:22:18;2.03;;;0.45;;
5999;SDS011;3028;49.468;7.694;2022-10-16T00:24:19;0.50;;;0.50;;
5999;SDS011;3028;49.468;7.694;2022-10-16T00:26:21;2.70;;;0.68;;
5999;SDS011;3028;49.468;7.694;2022-10-16T00:28:23;0.77;;;0.77;;
5999;SDS011;3028;49.468;7.694;2022-10-16T00:30:25;1.73;;;0.60;;
5999;SDS011;3028;49.468;7.694;2022-10-16T00:32:28;0.70;;;0.70;;
5999;SDS011;3028;49.468;7.694;2022-10-16T00:34:30;3.63;;;0.82;;
5999;SDS011;3028;49.468;7.694;2022-10-16T00:36:32;0.73;;;0.73;;
5999;SDS011;3028;49.468;7.694;2022-10-16T00:38:33;0.88;;;0.70;;
5999;SDS011;3028;49.468;7.694;2022-10-16T00:40:35;0.90;;;0.68;;
5999;SDS011;3028;49.468;7.694;2022-10-16T00:42:37;0.73;;;0.60;;
5999;SDS011;3028;49.468;7.694;2022-10-16T00:46:44;0.47;;;0.47;;
5999;SDS011;3028;49.468;7.694;2022-10-16T00:51:14;0.68;;;0.68;;
5999;SDS011;3028;49.468;7.694;2022-10-16T00:53:16;0.70;;;0.70;;
5999;SDS011;3028;49.468;7.694;2022-10-16T00:55:18;0.82;;;0.60;;
5999;SDS011;3028;49.468;7.694;2022-10-16T00:57:20;1.75;;;0.68;;
5999;SDS011;3028;49.468;7.694;2022-10-16T00:59:30;1.05;;;0.68;;
5999;SDS011;3028;49.468;7.694;2022-10-16T01:01:33;1.80;;;0.65;;
5999;SDS011;3028;49.468;7.694;2022-10-16T01:03:36;0.90;;;0.70;;
5999;SDS011;3028;49.468;7.694;2022-10-16T01:05:49;1.15;;;0.70;;
5999;SDS011;3028;49.468;7.694;2022-10-16T01:08:18;3.58;;;0.60;;
5999;SDS011;3028;49.468;7.694;2022-10-16T01:16:46;2.28;;;0.70;;
5999;SDS011;3028;49.468;7.694;2022-10-16T01:19:09;1.15;;;0.60;;
5999;SDS011;3028;49.468;7.694;2022-10-16T01:21:21;0.95;;;0.43;;
5999;SDS011;3028;49.468;7.694;2022-10-16T01:25:53;0.60;;;0.60;;
5999;SDS011;3028;49.468;7.694;2022-10-16T01:27:57;0.82;;;0.70;;
5999;SDS011;3028;49.468;7.694;2022-10-16T01:30:07;0.70;;;0.70;;
5999;SDS011;3028;49.468;7.694;2022-10-16T01:32:19;0.65;;;0.63;;
5999;SDS011;3028;49.468;7.694;2022-10-16T01:34:35;3.03;;;0.75;;
5999;SDS011;3028;49.468;7.694;2022-10-16T01:36:41;0.70;;;0.70;;
5999;SDS011;3028;49.468;7.694;2022-10-16T01:38:47;4.70;;;0.93;;
5999;SDS011;3028;49.468;7.694;2022-10-16T01:40:52;2.25;;;0.98;;
5999;SDS011;3028;49.468;7.694;2022-10-16T01:43:00;1.70;;;0.80;;
5999;SDS011;3028;49.468;7.694;2022-10-16T01:45:05;1.00;;;1.00;;
5999;SDS011;3028;49.468;7.694;2022-10-16T01:47:09;2.05;;;1.60;;
5999;SDS011;3028;49.468;7.694;2022-10-16T01:49:11;1.48;;;1.38;;
5999;SDS011;3028;49.468;7.694;2022-10-16T01:51:15;4.03;;;1.80;;
5999;SDS011;3028;49.468;7.694;2022-10-16T01:53:18;6.38;;;5.97;;
5999;SDS011;3028;49.468;7.694;2022-10-16T01:55:28;3.65;;;3.33;;
5999;SDS011;3028;49.468;7.694;2022-10-16T01:57:31;4.65;;;2.22;;
5999;SDS011;3028;49.468;7.694;2022-10-16T01:59:35;3.03;;;2.67;;
5999;SDS011;3028;49.468;7.694;2022-10-16T02:01:38;3.00;;;2.13;;
5999;SDS011;3028;49.468;7.694;2022-10-16T02:03:41;4.28;;;2.78;;
5999;SDS011;3028;49.468;7.694;2022-10-16T02:05:51;2.88;;;2.67;;
5999;SDS011;3028;49.468;7.694;2022-10-16T02:07:54;1.90;;;1.23;;
5999;SDS011;3028;49.468;7.694;2022-10-16T02:09:59;2.03;;;1.42;;
5999;SDS011;3028;49.468;7.694;2022-10-16T02:12:15;1.65;;;1.15;;
5999;SDS011;3028;49.468;7.694;2022-10-16T02:14:20;5.22;;;1.23;;
5999;SDS011;3028;49.468;7.694;2022-10-16T02:16:26;3.58;;;2.30;;
5999;SDS011;3028;49.468;7.694;2022-10-16T02:18:34;1.83;;;1.20;;
5999;SDS011;3028;49.468;7.694;2022-10-16T02:20:37;2.15;;;1.30;;
5999;SDS011;3028;49.468;7.694;2022-10-16T02:22:45;1.17;;;1.05;;
5999;SDS011;3028;49.468;7.694;2022-10-16T02:24:56;2.15;;;1.00;;
5999;SDS011;3028;49.468;7.694;2022-10-16T02:27:08;2.75;;;1.50;;
5999;SDS011;3028;49.468;7.694;2022-10-16T02:29:13;1.45;;;1.35;;
5999;SDS011;3028;49.468;7.694;2022-10-16T02:31:20;2.20;;;0.98;;
5999;SDS011;3028;49.468;7.694;2022-10-16T02:33:25;2.75;;;1.17;;
5999;SDS011;3028;49.468;7.694;2022-10-16T02:35:27;4.15;;;1.10;;
5999;SDS011;3028;49.468;7.694;2022-10-16T02:37:29;0.85;;;0.85;;
5999;SDS011;3028;49.468;7.694;2022-10-16T02:39:32;3.97;;;1.20;;
5999;SDS011;3028;49.468;7.694;2022-10-16T02:41:34;3.08;;;1.13;;
5999;SDS011;3028;49.468;7.694;2022-10-16T02:43:36;2.00;;;1.10;;
5999;SDS011;3028;49.468;7.694;2022-10-16T02:45:38;1.90;;;1.27;;
5999;SDS011;3028;49.468;7.694;2022-10-16T02:47:39;1.70;;;1.58;;
5999;SDS011;3028;49.468;7.694;2022-10-16T02:49:41;9.50;;;1.38;;
5999;SDS011;3028;49.468;7.694;2022-10-16T02:51:42;1.35;;;1.10;;
5999;SDS011;3028;49.468;7.694;2022-10-16T02:53:44;1.30;;;1.20;;
5999;SDS011;3028;49.468;7.694;2022-10-16T02:55:45;8.70;;;1.60;;
5999;SDS011;3028;49.468;7.694;2022-10-16T02:57:47;3.88;;;1.42;;
5999;SDS011;3028;49.468;7.694;2022-10-16T02:59:48;2.92;;;1.30;;
5999;SDS011;3028;49.468;7.694;2022-10-16T03:01:50;1.55;;;1.40;;
5999;SDS011;3028;49.468;7.694;2022-10-16T03:03:51;1.20;;;1.05;;
5999;SDS011;3028;49.468;7.694;2022-10-16T03:05:53;1.38;;;1.13;;
5999;SDS011;3028;49.468;7.694;2022-10-16T03:07:54;2.42;;;0.95;;
5999;SDS011;3028;49.468;7.694;2022-10-16T03:09:56;2.78;;;0.70;;
5999;SDS011;3028;49.468;7.694;2022-10-16T03:12:01;1.05;;;0.80;;
5999;SDS011;3028;49.468;7.694;2022-10-16T03:14:02;1.63;;;0.80;;
5999;SDS011;3028;49.468;7.694;2022-10-16T03:16:04;1.08;;;0.90;;
5999;SDS011;3028;49.468;7.694;2022-10-16T03:18:05;1.40;;;0.80;;
5999;SDS011;3028;49.468;7.694;2022-10-16T03:20:07;2.97;;;1.00;;
5999;SDS011;3028;49.468;7.694;2022-10-16T03:22:09;1.52;;;0.80;;
5999;SDS011;3028;49.468;7.694;2022-10-16T03:24:10;2.60;;;0.80;;
5999;SDS011;3028;49.468;7.694;2022-10-16T03:26:12;1.20;;;0.98;;
5999;SDS011;3028;49.468;7.694;2022-10-16T03:28:13;2.55;;;1.10;;
5999;SDS011;3028;49.468;7.694;2022-10-16T03:30:15;2.60;;;0.60;;
5999;SDS011;3028;49.468;7.694;2022-10-16T03:32:17;0.70;;;0.70;;
5999;SDS011;3028;49.468;7.694;2022-10-16T03:34:19;0.60;;;0.60;;
5999;SDS011;3028;49.468;7.694;2022-10-16T03:36:21;0.70;;;0.70;;
5999;SDS011;3028;49.468;7.694;2022-10-16T03:38:22;1.42;;;0.73;;
5999;SDS011;3028;49.468;7.694;2022-10-16T03:40:24;1.00;;;0.65;;
5999;SDS011;3028;49.468;7.694;2022-10-16T03:42:25;2.05;;;0.70;;
5999;SDS011;3028;49.468;7.694;2022-10-16T03:44:27;2.47;;;0.68;;
5999;SDS011;3028;49.468;7.694;2022-10-16T03:46:28;5.43;;;0.70;;
5999;SDS011;3028;49.468;7.694;2022-10-16T03:48:30;1.38;;;0.70;;
5999;SDS011;3028;49.468;7.694;2022-10-16T03:50:33;0.85;;;0.80;;
5999;SDS011;3028;49.468;7.694;2022-10-16T03:52:34;0.77;;;0.55;;
5999;SDS011;3028;49.468;7.694;2022-10-16T03:54:36;2.05;;;0.80;;
5999;SDS011;3028;49.468;7.694;2022-10-16T03:56:38;3.60;;;0.70;;
5999;SDS011;3028;49.468;7.694;2022-10-16T03:58:39;0.52;;;0.52;;
5999;SDS011;3028;49.468;7.694;2022-10-16T04:00:41;2.35;;;0.57;;
5999;SDS011;3028;49.468;7.694;2022-10-16T04:02:44;0.70;;;0.70;;
5999;SDS011;3028;49.468;7.694;2022-10-16T04:04:46;0.90;;;0.63;;
5999;SDS011;3028;49.468;7.694;2022-10-16T04:06:48;1.05;;;0.68;;
5999;SDS011;3028;49.468;7.694;2022-10-16T04:08:49;2.08;;;0.60;;
5999;SDS011;3028;49.468;7.694;2022-10-16T04:10:51;1.17;;;0.80;;
5999;SDS011;3028;49.468;7.694;2022-10-16T04:12:52;1.38;;;0.82;;
5999;SDS011;3028;49.468;7.694;2022-10-16T04:14:56;0.88;;;0.60;;
5999;SDS011;3028;49.468;7.694;2022-10-16T04:16:58;3.63;;;0.65;;
5999;SDS011;3028;49.468;7.694;2022-10-16T04:18:59;2.53;;;0.60;;
5999;SDS011;3028;49.468;7.694;2022-10-16T04:21:02;0.85;;;0.50;;
5999;SDS011;3028;49.468;7.694;2022-10-16T04:23:04;1.67;;;0.60;;
5999;SDS011;3028;49.468;7.694;2022-10-16T04:25:06;0.50;;;0.50;;
5999;SDS011;3028;49.468;7.694;2022-10-16T04:27:08;0.65;;;0.65;;
5999;SDS011;3028;49.468;7.694;2022-10-16T04:29:09;1.90;;;0.80;;
5999;SDS011;3028;49.468;7.694;2022-10-16T04:31:11;1.58;;;0.80;;
5999;SDS011;3028;49.468;7.694;2022-10-16T04:33:12;3.30;;;0.60;;
5999;SDS011;3028;49.468;7.694;2022-10-16T04:35:14;0.57;;;0.57;;
5999;SDS011;3028;49.468;7.694;2022-10-16T04:37:15;3.53;;;0.85;;
5999;SDS011;3028;49.468;7.694;2022-10-16T04:39:17;1.77;;;0.80;;
5999;SDS011;3028;49.468;7.694;2022-10-16T04:41:19;0.70;;;0.60;;
5999;SDS011;3028;49.468;7.694;2022-10-16T04:43:20;0.70;;;0.70;;
5999;SDS011;3028;49.468;7.694;2022-10-16T04:45:22;0.73;;;0.73;;
5999;SDS011;3028;49.468;7.694;2022-10-16T04:47:23;2.17;;;0.70;;
5999;SDS011;3028;49.468;7.694;2022-10-16T04:49:25;0.93;;;0.50;;
5999;SDS011;3028;49.468;7.694;2022-10-16T04:51:27;1.20;;;1.10;;
5999;SDS011;3028;49.468;7.694;2022-10-16T04:53:29;0.77;;;0.65;;
5999;SDS011;3028;49.468;7.694;2022-10-16T04:55:30;0.85;;;0.70;;
5999;SDS011;3028;49.468;7.694;2022-10-16T04:57:32;1.85;;;0.63;;
5999;SDS011;3028;49.468;7.694;2022-10-16T04:59:34;0.50;;;0.50;;
5999;SDS011;3028;49.468;7.694;2022-10-16T05:01:36;1.83;;;0.63;;
5999;SDS011;3028;49.468;7.694;2022-10-16T05:03:38;1.55;;;0.88;;
5999;SDS011;3028;49.468;7.694;2022-10-16T05:05:45;1.80;;;0.80;;
5999;SDS011;3028;49.468;7.694;2022-10-16T05:07:47;3.67;;;0.98;;
5999;SDS011;3028;49.468;7.694;2022-10-16T05:09:49;3.40;;;1.00;;
5999;SDS011;3028;49.468;7.694;2022-10-16T05:11:50;4.00;;;1.00;;
5999;SDS011;3028;49.468;7.694;2022-10-16T05:13:52;1.95;;;0.73;;
5999;SDS011;3028;49.468;7.694;2022-10-16T05:15:56;0.98;;;0.90;;
5999;SDS011;3028;49.468;7.694;2022-10-16T05:17:58;1.67;;;0.88;;
5999;SDS011;3028;49.468;7.694;2022-10-16T05:19:59;1.30;;;0.85;;
5999;SDS011;3028;49.468;7.694;2022-10-16T05:22:02;2.65;;;1.10;;
5999;SDS011;3028;49.468;7.694;2022-10-16T05:24:03;3.50;;;1.67;;
5999;SDS011;3028;49.468;7.694;2022-10-16T05:26:05;1.88;;;1.10;;
5999;SDS011;3028;49.468;7.694;2022-10-16T05:28:06;1.23;;;0.90;;
5999;SDS011;3028;49.468;7.694;2022-10-16T05:30:08;3.40;;;0.90;;
5999;SDS011;3028;49.468;7.694;2022-10-16T05:32:13;5.47;;;0.90;;
5999;SDS011;3028;49.468;7.694;2022-10-16T05:34:15;3.35;;;1.00;;
5999;SDS011;3028;49.468;7.694;2022-10-16T05:36:17;1.83;;;1.08;;
5999;SDS011;3028;49.468;7.694;2022-10-16T05:38:19;1.30;;;1.10;;
5999;SDS011;3028;49.468;7.694;2022-10-16T05:40:21;1.42;;;1.33;;
5999;SDS011;3028;49.468;7.694;2022-10-16T05:42:22;1.10;;;1.10;;
5999;SDS011;3028;49.468;7.694;2022-10-16T05:44:24;3.58;;;1.20;;
5999;SDS011;3028;49.468;7.694;2022-10-16T05:46:25;5.57;;;1.85;;
5999;SDS011;3028;49.468;7.694;2022-10-16T05:48:27;1.55;;;1.27;;
5999;SDS011;3028;49.468;7.694;2022-10-16T05:50:28;1.33;;;1.25;;
5999;SDS011;3028;49.468;7.694;2022-10-16T05:52:30;1.20;;;1.10;;
5999;SDS011;3028;49.468;7.694;2022-10-16T05:54:31;1.83;;;1.13;;
5999;SDS011;3028;49.468;7.694;2022-10-16T05:56:33;2.08;;;1.00;;
5999;SDS011;3028;49.468;7.694;2022-10-16T05:58:35;1.30;;;1.13;;
5999;SDS011;3028;49.468;7.694;2022-10-16T06:00:37;4.32;;;1.45;;
5999;SDS011;3028;49.468;7.694;2022-10-16T06:02:39;4.55;;;1.80;;
5999;SDS011;3028;49.468;7.694;2022-10-16T06:04:40;2.90;;;1.50;;
5999;SDS011;3028;49.468;7.694;2022-10-16T06:06:42;3.03;;;1.00;;
5999;SDS011;3028;49.468;7.694;2022-10-16T06:08:44;2.65;;;1.45;;
5999;SDS011;3028;49.468;7.694;2022-10-16T06:10:47;3.45;;;1.30;;
5999;SDS011;3028;49.468;7.694;2022-10-16T06:12:48;1.80;;;1.30;;
5999;SDS011;3028;49.468;7.694;2022-10-16T06:14:50;2.22;;;1.30;;
5999;SDS011;3028;49.468;7.694;2022-10-16T06:16:51;4.10;;;1.50;;
5999;SDS011;3028;49.468;7.694;2022-10-16T06:18:53;2.95;;;1.58;;
5999;SDS011;3028;49.468;7.694;2022-10-16T06:20:57;1.80;;;0.98;;
5999;SDS011;3028;49.468;7.694;2022-10-16T06:22:59;4.18;;;1.30;;
5999;SDS011;3028;49.468;7.694;2022-10-16T06:25:00;3.53;;;1.27;;
5999;SDS011;3028;49.468;7.694;2022-10-16T06:27:02;1.60;;;1.30;;
5999;SDS011;3028;49.468;7.694;2022-10-16T06:29:04;5.20;;;1.10;;
5999;SDS011;3028;49.468;7.694;2022-10-16T06:31:06;2.15;;;1.05;;
5999;SDS011;3028;49.468;7.694;2022-10-16T06:33:12;3.25;;;1.27;;
5999;SDS011;3028;49.468;7.694;2022-10-16T06:35:13;2.67;;;0.90;;
5999;SDS011;3028;49.468;7.694;2022-10-16T06:37:15;2.42;;;1.02;;
5999;SDS011;3028;49.468;7.694;2022-10-16T06:39:16;1.17;;;0.90;;
5999;SDS011;3028;49.468;7.694;2022-10-16T06:41:19;1.95;;;1.13;;
5999;SDS011;3028;49.468;7.694;2022-10-16T06:43:22;1.75;;;0.90;;
5999;SDS011;3028;49.468;7.694;2022-10-16T06:45:24;1.80;;;1.15;;
5999;SDS011;3028;49.468;7.694;2022-10-16T06:47:25;1.20;;;1.10;;
5999;SDS011;3028;49.468;7.694;2022-10-16T06:49:27;0.90;;;0.82;;
5999;SDS011;3028;49.468;7.694;2022-10-16T06:51:29;1.77;;;1.05;;
5999;SDS011;3028;49.468;7.694;2022-10-16T06:53:33;1.58;;;1.05;;
5999;SDS011;3028;49.468;7.694;2022-10-16T06:55:44;3.05;;;0.93;;
5999;SDS011;3028;49.468;7.694;2022-10-16T06:57:46;2.78;;;1.20;;
5999;SDS011;3028;49.468;7.694;2022-10-16T06:59:48;1.15;;;0.90;;
5999;SDS011;3028;49.468;7.694;2022-10-16T07:01:55;1.20;;;1.00;;
5999;SDS011;3028;49.468;7.694;2022-10-16T07:03:57;1.65;;;1.10;;
5999;SDS011;3028;49.468;7.694;2022-10-16T07:06:02;3.00;;;1.35;;
5999;SDS011;3028;49.468;7.694;2022-10-16T07:08:05;3.00;;;1.30;;
5999;SDS011;3028;49.468;7.694;2022-10-16T07:10:06;2.10;;;1.27;;
5999;SDS011;3028;49.468;7.694;2022-10-16T07:12:08;1.08;;;1.00;;
5999;SDS011;3028;49.468;7.694;2022-10-16T07:14:16;2.38;;;1.23;;
5999;SDS011;3028;49.468;7.694;2022-10-16T07:16:20;2.50;;;1.17;;
5999;SDS011;3028;49.468;7.694;2022-10-16T07:18:22;3.60;;;1.25;;
5999;SDS011;3028;49.468;7.694;2022-10-16T07:20:27;0.93;;;0.90;;
5999;SDS011;3028;49.468;7.694;2022-10-16T07:22:28;11.77;;;10.98;;
5999;SDS011;3028;49.468;7.694;2022-10-16T07:24:30;4.88;;;4.47;;
5999;SDS011;3028;49.468;7.694;2022-10-16T07:26:32;3.33;;;2.67;;
5999;SDS011;3028;49.468;7.694;2022-10-16T07:28:36;3.35;;;3.05;;
5999;SDS011;3028;49.468;7.694;2022-10-16T07:30:38;5.35;;;2.90;;
5999;SDS011;3028;49.468;7.694;2022-10-16T07:32:39;4.25;;;3.10;;
5999;SDS011;3028;49.468;7.694;2022-10-16T07:34:41;8.18;;;1.92;;
5999;SDS011;3028;49.468;7.694;2022-10-16T07:36:43;2.88;;;1.80;;
5999;SDS011;3028;49.468;7.694;2022-10-16T07:38:45;5.53;;;1.40;;
5999;SDS011;3028;49.468;7.694;2022-10-16T07:40:47;5.85;;;4.20;;
5999;SDS011;3028;49.468;7.694;2022-10-16T07:42:49;3.25;;;2.95;;
5999;SDS011;3028;49.468;7.694;2022-10-16T07:44:50;2.28;;;2.08;;
5999;SDS011;3028;49.468;7.694;2022-10-16T07:46:52;5.22;;;2.13;;
5999;SDS011;3028;49.468;7.694;2022-10-16T07:48:53;4.15;;;3.20;;
5999;SDS011;3028;49.468;7.694;2022-10-16T07:50:58;5.75;;;5.03;;
5999;SDS011;3028;49.468;7.694;2022-10-16T07:53:03;3.78;;;2.70;;
5999;SDS011;3028;49.468;7.694;2022-10-16T07:55:05;5.72;;;5.13;;
5999;SDS011;3028;49.468;7.694;2022-10-16T07:57:06;6.18;;;4.43;;
5999;SDS011;3028;49.468;7.694;2022-10-16T07:59:08;3.95;;;3.20;;
5999;SDS011;3028;49.468;7.694;2022-10-16T08:01:10;4.20;;;2.78;;
5999;SDS011;3028;49.468;7.694;2022-10-16T08:03:14;3.72;;;2.72;;
5999;SDS011;3028;49.468;7.694;2022-10-16T08:05:15;4.75;;;2.33;;
5999;SDS011;3028;49.468;7.694;2022-10-16T08:07:17;4.88;;;2.92;;
5999;SDS011;3028;49.468;7.694;2022-10-16T08:09:19;3.33;;;3.08;;
5999;SDS011;3028;49.468;7.694;2022-10-16T08:11:20;5.82;;;3.83;;
5999;SDS011;3028;49.468;7.694;2022-10-16T08:13:22;6.82;;;6.13;;
5999;SDS011;3028;49.468;7.694;2022-10-16T08:15:23;6.80;;;6.20;;
5999;SDS011;3028;49.468;7.694;2022-10-16T08:17:25;5.32;;;4.28;;
5999;SDS011;3028;49.468;7.694;2022-10-16T08:19:27;3.85;;;3.55;;
5999;SDS011;3028;49.468;7.694;2022-10-16T08:21:29;4.45;;;4.05;;
5999;SDS011;3028;49.468;7.694;2022-10-16T08:23:30;3.90;;;3.60;;
5999;SDS011;3028;49.468;7.694;2022-10-16T08:25:34;4.88;;;3.60;;
5999;SDS011;3028;49.468;7.694;2022-10-16T08:27:36;3.65;;;3.35;;
5999;SDS011;3028;49.468;7.694;2022-10-16T08:29:38;5.43;;;2.70;;
5999;SDS011;3028;49.468;7.694;2022-10-16T08:31:39;4.00;;;2.72;;
5999;SDS011;3028;49.468;7.694;2022-10-16T08:33:42;3.08;;;2.88;;
5999;SDS011;3028;49.468;7.694;2022-10-16T08:35:52;4.07;;;3.17;;
5999;SDS011;3028;49.468;7.694;2022-10-16T08:37:54;2.63;;;2.42;;
5999;SDS011;3028;49.468;7.694;2022-10-16T08:39:56;2.13;;;2.03;;
5999;SDS011;3028;49.468;7.694;2022-10-16T08:42:10;3.28;;;2.78;;
5999;SDS011;3028;49.468;7.694;2022-10-16T08:44:23;2.67;;;2.42;;
5999;SDS011;3028;49.468;7.694;2022-10-16T08:48:54;2.42;;;2.22;;
5999;SDS011;3028;49.468;7.694;2022-10-16T08:50:58;2.92;;;2.53;;
5999;SDS011;3028;49.468;7.694;2022-10-16T08:52:59;2.10;;;1.92;;
5999;SDS011;3028;49.468;7.694;2022-10-16T08:55:01;3.38;;;3.10;;
5999;SDS011;3028;49.468;7.694;2022-10-16T08:57:11;4.22;;;3.38;;
5999;SDS011;3028;49.468;7.694;2022-10-16T08:59:21;3.42;;;3.20;;
5999;SDS011;3028;49.468;7.694;2022-10-16T09:01:23;2.40;;;2.20;;
5999;SDS011;3028;49.468;7.694;2022-10-16T09:05:54;2.25;;;1.80;;
5999;SDS011;3028;49.468;7.694;2022-10-16T09:12:40;4.35;;;1.63;;
5999;SDS011;3028;49.468;7.694;2022-10-16T09:15:01;2.75;;;1.20;;
5999;SDS011;3028;49.468;7.694;2022-10-16T09:20:13;1.65;;;0.98;;
5999;SDS011;3028;49.468;7.694;2022-10-16T09:22:29;1.55;;;1.30;;
5999;SDS011;3028;49.468;7.694;2022-10-16T09:24:33;0.90;;;0.80;;
5999;SDS011;3028;49.468;7.694;2022-10-16T09:26:35;2.22;;;1.52;;
5999;SDS011;3028;49.468;7.694;2022-10-16T09:28:36;2.70;;;1.17;;
5999;SDS011;3028;49.468;7.694;2022-10-16T09:30:38;2.28;;;1.30;;
5999;SDS011;3028;49.468;7.694;2022-10-16T09:32:41;1.83;;;1.33;;
5999;SDS011;3028;49.468;7.694;2022-10-16T09:34:44;3.13;;;1.50;;
5999;SDS011;3028;49.468;7.694;2022-10-16T09:36:48;4.30;;;1.50;;
5999;SDS011;3028;49.468;7.694;2022-10-16T09:39:00;1.60;;;1.30;;
5999;SDS011;3028;49.468;7.694;2022-10-16T09:41:20;4.45;;;1.23;;
5999;SDS011;3028;49.468;7.694;2022-10-16T09:45:24;2.08;;;1.40;;
5999;SDS011;3028;49.468;7.694;2022-10-16T09:47:26;2.70;;;2.17;;
5999;SDS011;3028;49.468;7.694;2022-10-16T09:49:30;3.17;;;1.30;;
5999;SDS011;3028;49.468;7.694;2022-10-16T09:51:33;1.20;;;1.00;;
5999;SDS011;3028;49.468;7.694;2022-10-16T09:53:42;1.88;;;1.13;;
5999;SDS011;3028;49.468;7.694;2022-10-16T09:55:51;2.03;;;0.98;;
5999;SDS011;3028;49.468;7.694;2022-10-16T09:57:54;4.75;;;1.50;;
5999;SDS011;3028;49.468;7.694;2022-10-16T09:59:56;1.23;;;1.13;;
5999;SDS011;3028;49.468;7.694;2022-10-16T10:02:10;1.20;;;1.10;;
5999;SDS011;3028;49.468;7.694;2022-10-16T10:04:14;3.05;;;1.40;;
5999;SDS011;3028;49.468;7.694;2022-10-16T10:06:23;3.42;;;1.52;;
5999;SDS011;3028;49.468;7.694;2022-10-16T10:08:27;3.38;;;1.35;;
5999;SDS011;3028;49.468;7.694;2022-10-16T10:10:30;6.53;;;1.38;;
5999;SDS011;3028;49.468;7.694;2022-10-16T10:12:33;1.92;;;1.30;;
5999;SDS011;3028;49.468;7.694;2022-10-16T10:16:38;2.35;;;1.50;;
5999;SDS011;3028;49.468;7.694;2022-10-16T10:18:40;3.67;;;2.60;;
5999;SDS011;3028;49.468;7.694;2022-10-16T10:20:41;5.07;;;2.15;;
5999;SDS011;3028;49.468;7.694;2022-10-16T10:22:44;2.95;;;1.77;;
5999;SDS011;3028;49.468;7.694;2022-10-16T10:27:14;10.15;;;1.55;;
5999;SDS011;3028;49.468;7.694;2022-10-16T10:33:53;1.45;;;1.35;;
5999;SDS011;3028;49.468;7.694;2022-10-16T10:40:22;1.60;;;1.10;;
5999;SDS011;3028;49.468;7.694;2022-10-16T10:45:43;10.02;;;1.42;;
5999;SDS011;3028;49.468;7.694;2022-10-16T10:47:53;2.80;;;1.20;;
5999;SDS011;3028;49.468;7.694;2022-10-16T10:57:30;2.30;;;1.60;;
5999;SDS011;3028;49.468;7.694;2022-10-16T11:02:26;1.83;;;1.58;;
5999;SDS011;3028;49.468;7.694;2022-10-16T11:04:37;7.10;;;1.60;;
5999;SDS011;3028;49.468;7.694;2022-10-16T11:06:53;2.58;;;1.77;;
5999;SDS011;3028;49.468;7.694;2022-10-16T11:11:16;6.00;;;1.55;;
5999;SDS011;3028;49.468;7.694;2022-10-16T11:15:36;3.22;;;1.60;;
5999;SDS011;3028;49.468;7.694;2022-10-16T11:18:24;2.03;;;1.50;;
5999;SDS011;3028;49.468;7.694;2022-10-16T11:22:32;2.30;;;1.70;;
5999;SDS011;3028;49.468;7.694;2022-10-16T11:27:15;1.60;;;1.50;;
5999;SDS011;3028;49.468;7.694;2022-10-16T11:29:22;1.52;;;1.30;;
5999;SDS011;3028;49.468;7.694;2022-10-16T11:31:39;2.08;;;1.30;;
5999;SDS011;3028;49.468;7.694;2022-10-16T11:33:49;6.55;;;1.50;;
5999;SDS011;3028;49.468;7.694;2022-10-16T11:36:25;3.47;;;1.50;;
5999;SDS011;3028;49.468;7.694;2022-10-16T11:40:32;1.50;;;1.40;;
5999;SDS011;3028;49.468;7.694;2022-10-16T11:42:40;3.03;;;1.40;;
5999;SDS011;3028;49.468;7.694;2022-10-16T11:46:48;2.25;;;1.55;;
5999;SDS011;3028;49.468;7.694;2022-10-16T11:49:18;3.03;;;1.88;;
5999;SDS011;3028;49.468;7.694;2022-10-16T11:51:32;6.20;;;1.40;;
5999;SDS011;3028;49.468;7.694;2022-10-16T11:53:45;2.22;;;1.60;;
5999;SDS011;3028;49.468;7.694;2022-10-16T11:55:51;2.50;;;1.52;;
5999;SDS011;3028;49.468;7.694;2022-10-16T11:57:54;2.28;;;1.40;;
5999;SDS011;3028;49.468;7.694;2022-10-16T12:00:22;6.35;;;1.40;;
5999;SDS011;3028;49.468;7.694;2022-10-16T12:05:02;7.60;;;1.48;;
5999;SDS011;3028;49.468;7.694;2022-10-16T12:07:09;1.70;;;1.45;;
5999;SDS011;3028;49.468;7.694;2022-10-16T12:09:22;2.35;;;1.60;;
5999;SDS011;3028;49.468;7.694;2022-10-16T12:13:33;1.90;;;1.42;;
5999;SDS011;3028;49.468;7.694;2022-10-16T12:15:36;1.50;;;1.10;;
5999;SDS011;3028;49.468;7.694;2022-10-16T12:17:57;2.85;;;1.50;;
5999;SDS011;3028;49.468;7.694;2022-10-16T12:22:18;1.60;;;1.50;;
5999;SDS011;3028;49.468;7.694;2022-10-16T12:26:38;8.43;;;1.40;;
5999;SDS011;3028;49.468;7.694;2022-10-16T12:28:42;4.05;;;1.50;;
5999;SDS011;3028;49.468;7.694;2022-10-16T12:30:57;2.20;;;2.00;;
5999;SDS011;3028;49.468;7.694;2022-10-16T12:35:33;3.38;;;1.30;;
5999;SDS011;3028;49.468;7.694;2022-10-16T12:37:36;1.52;;;1.35;;
5999;SDS011;3028;49.468;7.694;2022-10-16T12:39:39;2.25;;;1.40;;
5999;SDS011;3028;49.468;7.694;2022-10-16T12:41:41;3.42;;;1.30;;
5999;SDS011;3028;49.468;7.694;2022-10-16T12:43:44;4.18;;;1.20;;
5999;SDS011;3028;49.468;7.694;2022-10-16T12:45:47;1.27;;;1.17;;
5999;SDS011;3028;49.468;7.694;2022-10-16T12:47:49;1.98;;;1.08;;
5999;SDS011;3028;49.468;7.694;2022-10-16T12:49:53;2.30;;;1.10;;
5999;SDS011;3028;49.468;7.694;2022-10-16T12:51:56;2.47;;;1.00;;
5999;SDS011;3028;49.468;7.694;2022-10-16T12:53:58;6.30;;;1.38;;
5999;SDS011;3028;49.468;7.694;2022-10-16T12:56:09;15.60;;;1.40;;
5999;SDS011;3028;49.468;7.694;2022-10-16T12:58:31;1.50;;;1.23;;
5999;SDS011;3028;49.468;7.694;2022-10-16T13:00:54;9.88;;;1.17;;
5999;SDS011;3028;49.468;7.694;2022-10-16T13:03:08;7.90;;;1.40;;
5999;SDS011;3028;49.468;7.694;2022-10-16T13:10:55;6.40;;;1.42;;
5999;SDS011;3028;49.468;7.694;2022-10-16T13:17:31;3.40;;;1.60;;
5999;SDS011;3028;49.468;7.694;2022-10-16T13:24:16;1.88;;;1.63;;
5999;SDS011;3028;49.468;7.694;2022-10-16T13:28:38;1.30;;;1.20;;
5999;SDS011;3028;49.468;7.694;2022-10-16T13:30:44;1.15;;;1.00;;
5999;SDS011;3028;49.468;7.694;2022-10-16T13:33:00;7.03;;;1.27;;
5999;SDS011;3028;49.468;7.694;2022-10-16T13:35:03;2.67;;;1.50;;
5999;SDS011;3028;49.468;7.694;2022-10-16T13:37:15;4.70;;;1.95;;
5999;SDS011;3028;49.468;7.694;2022-10-16T13:39:28;5.22;;;1.50;;
5999;SDS011;3028;49.468;7.694;2022-10-16T13:41:31;2.55;;;1.33;;
5999;SDS011;3028;49.468;7.694;2022-10-16T13:45:38;2.85;;;1.90;;
5999;SDS011;3028;49.468;7.694;2022-10-16T13:47:39;10.95;;;1.77;;
5999;SDS011;3028;49.468;7.694;2022-10-16T13:49:41;4.35;;;1.42;;
5999;SDS011;3028;49.468;7.694;2022-10-16T13:51:58;21.17;;;1.88;;
5999;SDS011;3028;49.468;7.694;2022-10-16T13:54:00;1.50;;;1.38;;
5999;SDS011;3028;49.468;7.694;2022-10-16T13:56:03;2.58;;;1.73;;
5999;SDS011;3028;49.468;7.694;2022-10-16T13:58:11;4.97;;;1.52;;
5999;SDS011;3028;49.468;7.694;2022-10-16T14:00:18;4.38;;;1.70;;
5999;SDS011;3028;49.468;7.694;2022-10-16T14:02:27;2.15;;;1.75;;
5999;SDS011;3028;49.468;7.694;2022-10-16T14:04:32;3.90;;;1.30;;
5999;SDS011;3028;49.468;7.694;2022-10-16T14:06:34;2.00;;;1.90;;
5999;SDS011;3028;49.468;7.694;2022-10-16T14:08:40;3.03;;;1.58;;
5999;SDS011;3028;49.468;7.694;2022-10-16T14:10:47;3.10;;;1.73;;
5999;SDS011;3028;49.468;7.694;2022-10-16T14:12:54;1.48;;;1.38;;
5999;SDS011;3028;49.468;7.694;2022-10-16T14:15:01;3.00;;;1.58;;
5999;SDS011;3028;49.468;7.694;2022-10-16T14:17:05;2.05;;;1.85;;
5999;SDS011;3028;49.468;7.694;2022-10-16T14:19:13;3.95;;;1.60;;
5999;SDS011;3028;49.468;7.694;2022-10-16T14:21:19;2.45;;;1.40;;
5999;SDS011;3028;49.468;7.694;2022-10-16T14:23:28;3.10;;;1.30;;
5999;SDS011;3028;49.468;7.694;2022-10-16T14:25:31;1.90;;;1.65;;
5999;SDS011;3028;49.468;7.694;2022-10-16T14:27:34;1.88;;;1.52;;
5999;SDS011;3028;49.468;7.694;2022-10-16T14:29:37;3.33;;;1.30;;
5999;SDS011;3028;49.468;7.694;2022-10-16T14:31:38;3.05;;;1.63;;
5999;SDS011;3028;49.468;7.694;2022-10-16T14:33:40;1.70;;;1.20;;